sensor_id;sensor_type;location;lat;lon;timestamp;pressure;altitude;pressure_sealevel;temperature;humidity
5988;BME280;3021;51.000;6.980;2024-02-16T00:00:59;67847.78;;;13.89;100.00
5988;BME280;3021;51.000;6.980;2024-02-16T00:03:25;67851.28;;;13.92;100.00
5988;BME280;3021;51.000;6.980;2024-02-16T00:05:51;67854.16;;;13.94;100.00
5988;BME280;3021;51.000;6.980;2024-02-16T00:08:18;67857.06;;;13.97;100.00
5988;BME280;3021;51.000;6.980;2024-02-16T00:10:43;67861.13;;;14.00;100.00
5988;BME280;3021;51.000;6.980;2024-02-16T00:13:09;67864.59;;;14.04;100.00
5988;BME280;3021;51.000;6.980;2024-02-16T00:15:34;67869.09;;;14.05;100.00
5988;BME280;3021;51.000;6.980;2024-02-16T00:18:00;67869.94;;;14.11;100.00
5988;BME280;3021;51.000;6.980;2024-02-16T00:20:25;67875.47;;;14.11;100.00
5988;BME280;3021;51.000;6.980;2024-02-16T00:22:50;67870.25;;;14.06;100.00
5988;BME280;3021;51.000;6.980;2024-02-16T00:25:16;67876.03;;;14.11;100.00
5988;BME280;3021;51.000;6.980;2024-02-16T00:27:43;67864.00;;;14.03;100.00
5988;BME280;3021;51.000;6.980;2024-02-16T00:30:09;67867.03;;;14.08;100.00
5988;BME280;3021;51.000;6.980;2024-02-16T00:32:35;67870.25;;;14.06;100.00
5988;BME280;3021;51.000;6.980;2024-02-16T00:35:02;67874.28;;;14.10;100.00
5988;BME280;3021;51.000;6.980;2024-02-16T00:37:27;67875.47;;;14.11;100.00
5988;BME280;3021;51.000;6.980;2024-02-16T00:39:53;67885.16;;;14.17;100.00
5988;BME280;3021;51.000;6.980;2024-02-16T00:42:19;67875.00;;;14.13;100.00
5988;BME280;3021;51.000;6.980;2024-02-16T00:44:45;67872.69;;;14.11;100.00
5988;BME280;3021;51.000;6.980;2024-02-16T00:47:10;67881.38;;;14.18;100.00
5988;BME280;3021;51.000;6.980;2024-02-16T00:49:35;67886.47;;;14.21;100.00
5988;BME280;3021;51.000;6.980;2024-02-16T00:52:01;67891.84;;;14.28;100.00
5988;BME280;3021;51.000;6.980;2024-02-16T00:54:30;67894.59;;;14.28;100.00
5988;BME280;3021;51.000;6.980;2024-02-16T00:56:56;67894.72;;;14.30;100.00
5988;BME280;3021;51.000;6.980;2024-02-16T00:59:26;67897.63;;;14.33;100.00
5988;BME280;3021;51.000;6.980;2024-02-16T01:01:51;67896.31;;;14.29;100.00
5988;BME280;3021;51.000;6.980;2024-02-16T01:04:17;67894.28;;;14.32;100.00
5988;BME280;3021;51.000;6.980;2024-02-16T01:06:42;67904.28;;;14.34;100.00
5988;BME280;3021;51.000;6.980;2024-02-16T01:09:07;67892.41;;;14.28;100.00
5988;BME280;3021;51.000;6.980;2024-02-16T01:11:33;67904.44;;;14.37;100.00
5988;BME280;3021;51.000;6.980;2024-02-16T01:13:59;67892.84;;;14.26;100.00
5988;BME280;3021;51.000;6.980;2024-02-16T01:16:25;67888.94;;;14.25;100.00
5988;BME280;3021;51.000;6.980;2024-02-16T01:18:50;67885.44;;;14.22;100.00
5988;BME280;3021;51.000;6.980;2024-02-16T01:21:15;67878.47;;;14.16;100.00
5988;BME280;3021;51.000;6.980;2024-02-16T01:23:41;67889.94;;;14.24;100.00
5988;BME280;3021;51.000;6.980;2024-02-16T01:26:07;67893.56;;;14.29;100.00
5988;BME280;3021;51.000;6.980;2024-02-16T01:28:32;67900.97;;;14.33;100.00
5988;BME280;3021;51.000;6.980;2024-02-16T01:30:57;67901.53;;;14.34;100.00
5988;BME280;3021;51.000;6.980;2024-02-16T01:33:22;67899.22;;;14.32;100.00
5988;BME280;3021;51.000;6.980;2024-02-16T01:35:48;67911.84;;;14.41;100.00
5988;BME280;3021;51.000;6.980;2024-02-16T01:38:13;67908.50;;;14.40;100.00
5988;BME280;3021;51.000;6.980;2024-02-16T01:40:39;67898.34;;;14.36;100.00
5988;BME280;3021;51.000;6.980;2024-02-16T01:43:05;67904.44;;;14.37;100.00
5988;BME280;3021;51.000;6.980;2024-02-16T01:45:30;67901.69;;;14.37;100.00
5988;BME280;3021;51.000;6.980;2024-02-16T01:47:55;67902.97;;;14.40;100.00
5988;BME280;3021;51.000;6.980;2024-02-16T01:50:21;67909.09;;;14.41;100.00
5988;BME280;3021;51.000;6.980;2024-02-16T01:52:48;67908.06;;;14.42;100.00
5988;BME280;3021;51.000;6.980;2024-02-16T01:55:14;67907.34;;;14.39;100.00
5988;BME280;3021;51.000;6.980;2024-02-16T01:57:43;67905.72;;;14.40;100.00
5988;BME280;3021;51.000;6.980;2024-02-16T02:00:09;67907.47;;;14.42;100.00
5988;BME280;3021;51.000;6.980;2024-02-16T02:02:37;67910.22;;;14.42;100.00
5988;BME280;3021;51.000;6.980;2024-02-16T02:05:03;67912.09;;;14.46;100.00
5988;BME280;3021;51.000;6.980;2024-02-16T02:07:29;67921.25;;;14.51;100.00
5988;BME280;3021;51.000;6.980;2024-02-16T02:09:55;67926.03;;;14.58;100.00
5988;BME280;3021;51.000;6.980;2024-02-16T02:12:21;67928.34;;;14.60;100.00
5988;BME280;3021;51.000;6.980;2024-02-16T02:14:47;67930.69;;;14.62;100.00
5988;BME280;3021;51.000;6.980;2024-02-16T02:17:12;67935.19;;;14.64;100.00
5988;BME280;3021;51.000;6.980;2024-02-16T02:19:38;67931.41;;;14.65;100.00
5988;BME280;3021;51.000;6.980;2024-02-16T02:22:03;67914.28;;;14.45;100.00
5988;BME280;3021;51.000;6.980;2024-02-16T02:24:29;67872.13;;;14.10;100.00
5988;BME280;3021;51.000;6.980;2024-02-16T02:26:54;67829.66;;;13.70;100.00
5988;BME280;3021;51.000;6.980;2024-02-16T02:29:20;67799.69;;;13.46;100.00
5988;BME280;3021;51.000;6.980;2024-02-16T02:31:45;67791.56;;;13.39;100.00
5988;BME280;3021;51.000;6.980;2024-02-16T02:34:11;67798.09;;;13.47;100.00
5988;BME280;3021;51.000;6.980;2024-02-16T02:36:36;67825.63;;;13.67;100.00
5988;BME280;3021;51.000;6.980;2024-02-16T02:39:02;67840.25;;;13.82;100.00
5988;BME280;3021;51.000;6.980;2024-02-16T02:41:27;67849.50;;;13.90;100.00
5988;BME280;3021;51.000;6.980;2024-02-16T02:43:53;67869.22;;;14.08;100.00
5988;BME280;3021;51.000;6.980;2024-02-16T02:46:18;67868.22;;;14.09;100.00
5988;BME280;3021;51.000;6.980;2024-02-16T02:48:45;67882.09;;;14.22;100.00
5988;BME280;3021;51.000;6.980;2024-02-16T02:51:10;67895.16;;;14.28;100.00
5988;BME280;3021;51.000;6.980;2024-02-16T02:53:36;67898.06;;;14.31;100.00
5988;BME280;3021;51.000;6.980;2024-02-16T02:56:02;67896.47;;;14.32;100.00
5988;BME280;3021;51.000;6.980;2024-02-16T02:58:28;67906.19;;;14.38;100.00
5988;BME280;3021;51.000;6.980;2024-02-16T03:00:53;67907.47;;;14.42;100.00
5988;BME280;3021;51.000;6.980;2024-02-16T03:03:20;67911.53;;;14.45;100.00
5988;BME280;3021;51.000;6.980;2024-02-16T03:05:45;67918.34;;;14.49;100.00
5988;BME280;3021;51.000;6.980;2024-02-16T03:08:10;67914.28;;;14.45;100.00
5988;BME280;3021;51.000;6.980;2024-02-16T03:10:36;67891.69;;;14.25;100.00
5988;BME280;3021;51.000;6.980;2024-02-16T03:13:02;67856.34;;;13.94;100.00
5988;BME280;3021;51.000;6.980;2024-02-16T03:15:28;67825.19;;;13.69;100.00
5988;BME280;3021;51.000;6.980;2024-02-16T03:17:54;67814.31;;;13.61;100.00
5988;BME280;3021;51.000;6.980;2024-02-16T03:20:20;67826.34;;;13.70;100.00
5988;BME280;3021;51.000;6.980;2024-02-16T03:22:46;67832.88;;;13.78;100.00
5988;BME280;3021;51.000;6.980;2024-02-16T03:25:12;67855.75;;;13.93;100.00
5988;BME280;3021;51.000;6.980;2024-02-16T03:27:37;67856.63;;;13.99;100.00
5988;BME280;3021;51.000;6.980;2024-02-16T03:30:03;67832.16;;;13.75;100.00
5988;BME280;3021;51.000;6.980;2024-02-16T03:32:29;67811.16;;;13.54;100.00
5988;BME280;3021;51.000;6.980;2024-02-16T03:34:56;67812.31;;;13.55;100.00
5988;BME280;3021;51.000;6.980;2024-02-16T03:37:22;67818.69;;;13.60;100.00
5988;BME280;3021;51.000;6.980;2024-02-16T03:39:47;67822.31;;;13.66;100.00
5988;BME280;3021;51.000;6.980;2024-02-16T03:42:12;67828.66;;;13.72;100.00
5988;BME280;3021;51.000;6.980;2024-02-16T03:44:38;67840.13;;;13.79;100.00
5988;BME280;3021;51.000;6.980;2024-02-16T03:47:03;67841.28;;;13.80;100.00
5988;BME280;3021;51.000;6.980;2024-02-16T03:49:28;67847.06;;;13.86;100.00
5988;BME280;3021;51.000;6.980;2024-02-16T03:51:54;67849.38;;;13.88;100.00
5988;BME280;3021;51.000;6.980;2024-02-16T03:54:19;67857.50;;;13.95;100.00
5988;BME280;3021;51.000;6.980;2024-02-16T03:56:44;67865.16;;;14.04;100.00
5988;BME280;3021;51.000;6.980;2024-02-16T03:59:10;67870.25;;;14.06;100.00
5988;BME280;3021;51.000;6.980;2024-02-16T04:01:35;67868.06;;;14.07;100.00
5988;BME280;3021;51.000;6.980;2024-02-16T04:04:01;67885.88;;;14.20;100.00
5988;BME280;3021;51.000;6.980;2024-02-16T04:06:28;67891.25;;;14.27;100.00
5988;BME280;3021;51.000;6.980;2024-02-16T04:08:53;67888.94;;;14.25;100.00
5988;BME280;3021;51.000;6.980;2024-02-16T04:11:19;67886.63;;;14.23;100.00
5988;BME280;3021;51.000;6.980;2024-02-16T04:13:44;67884.28;;;14.21;100.00
5988;BME280;3021;51.000;6.980;2024-02-16T04:16:09;67887.19;;;14.24;100.00
5988;BME280;3021;51.000;6.980;2024-02-16T04:18:35;67887.19;;;14.24;100.00
5988;BME280;3021;51.000;6.980;2024-02-16T04:21:00;67893.56;;;14.29;100.00
5988;BME280;3021;51.000;6.980;2024-02-16T04:23:25;67903.88;;;14.36;100.00
5988;BME280;3021;51.000;6.980;2024-02-16T04:25:51;67906.19;;;14.38;100.00
5988;BME280;3021;51.000;6.980;2024-02-16T04:28:16;67902.84;;;14.38;100.00
5988;BME280;3021;51.000;6.980;2024-02-16T04:30:43;67909.09;;;14.41;100.00
5988;BME280;3021;51.000;6.980;2024-02-16T04:33:09;67920.09;;;14.50;100.00
5988;BME280;3021;51.000;6.980;2024-02-16T04:35:34;67910.97;;;14.45;100.00
5988;BME280;3021;51.000;6.980;2024-02-16T04:37:59;67901.69;;;14.37;100.00
5988;BME280;3021;51.000;6.980;2024-02-16T04:40:25;67883.13;;;14.20;100.00
5988;BME280;3021;51.000;6.980;2024-02-16T04:42:50;67870.25;;;14.06;100.00
5988;BME280;3021;51.000;6.980;2024-02-16T04:45:16;67862.84;;;14.02;100.00
5988;BME280;3021;51.000;6.980;2024-02-16T04:47:41;67870.81;;;14.07;100.00
5988;BME280;3021;51.000;6.980;2024-02-16T04:50:07;67861.69;;;14.01;100.00
5988;BME280;3021;51.000;6.980;2024-02-16T04:52:37;67862.25;;;14.02;100.00
5988;BME280;3021;51.000;6.980;2024-02-16T04:55:03;67868.06;;;14.07;100.00
5988;BME280;3021;51.000;6.980;2024-02-16T04:57:29;67869.22;;;14.08;100.00
5988;BME280;3021;51.000;6.980;2024-02-16T04:59:54;67869.09;;;14.05;100.00
5988;BME280;3021;51.000;6.980;2024-02-16T05:02:19;67869.38;;;14.10;100.00
5988;BME280;3021;51.000;6.980;2024-02-16T05:04:45;67878.22;;;14.11;100.00
5988;BME280;3021;51.000;6.980;2024-02-16T05:07:10;67881.84;;;14.16;100.00
5988;BME280;3021;51.000;6.980;2024-02-16T05:09:35;67875.00;;;14.13;100.00
5988;BME280;3021;51.000;6.980;2024-02-16T05:12:00;67879.50;;;14.14;100.00
5988;BME280;3021;51.000;6.980;2024-02-16T05:14:26;67881.84;;;14.16;100.00
5988;BME280;3021;51.000;6.980;2024-02-16T05:16:51;67883.13;;;14.20;100.00
5988;BME280;3021;51.000;6.980;2024-02-16T05:19:16;67884.75;;;14.19;100.00
5988;BME280;3021;51.000;6.980;2024-02-16T05:21:42;67887.03;;;14.21;100.00
5988;BME280;3021;51.000;6.980;2024-02-16T05:24:07;67879.78;;;14.20;100.00
5988;BME280;3021;51.000;6.980;2024-02-16T05:26:33;67884.75;;;14.19;100.00
5988;BME280;3021;51.000;6.980;2024-02-16T05:28:59;67887.63;;;14.22;100.00
5988;BME280;3021;51.000;6.980;2024-02-16T05:31:24;67885.44;;;14.22;100.00
5988;BME280;3021;51.000;6.980;2024-02-16T05:33:50;67887.03;;;14.21;100.00
5988;BME280;3021;51.000;6.980;2024-02-16T05:36:20;67889.94;;;14.24;100.00
5988;BME280;3021;51.000;6.980;2024-02-16T05:38:46;67891.25;;;14.27;100.00
5988;BME280;3021;51.000;6.980;2024-02-16T05:41:12;67891.69;;;14.25;100.00
5988;BME280;3021;51.000;6.980;2024-02-16T05:43:37;67889.38;;;14.23;100.00
5988;BME280;3021;51.000;6.980;2024-02-16T05:46:05;67885.31;;;14.20;100.00
5988;BME280;3021;51.000;6.980;2024-02-16T05:48:33;67887.63;;;14.22;100.00
5988;BME280;3021;51.000;6.980;2024-02-16T05:51:00;67887.03;;;14.21;100.00
5988;BME280;3021;51.000;6.980;2024-02-16T05:53:26;67883.56;;;14.18;100.00
5988;BME280;3021;51.000;6.980;2024-02-16T05:55:52;67888.78;;;14.23;100.00
5988;BME280;3021;51.000;6.980;2024-02-16T05:58:18;67889.38;;;14.23;100.00
5988;BME280;3021;51.000;6.980;2024-02-16T06:00:43;67892.84;;;14.26;100.00
5988;BME280;3021;51.000;6.980;2024-02-16T06:03:08;67888.34;;;14.25;100.00
5988;BME280;3021;51.000;6.980;2024-02-16T06:05:34;67884.75;;;14.19;100.00
5988;BME280;3021;51.000;6.980;2024-02-16T06:07:59;67877.19;;;14.12;100.00
5988;BME280;3021;51.000;6.980;2024-02-16T06:10:25;67871.53;;;14.10;100.00
5988;BME280;3021;51.000;6.980;2024-02-16T06:12:51;67873.88;;;14.12;100.00
5988;BME280;3021;51.000;6.980;2024-02-16T06:15:16;67867.50;;;14.06;100.00
5988;BME280;3021;51.000;6.980;2024-02-16T06:17:41;67862.84;;;14.02;100.00
5988;BME280;3021;51.000;6.980;2024-02-16T06:20:07;67865.16;;;14.04;100.00
5988;BME280;3021;51.000;6.980;2024-02-16T06:22:36;67868.06;;;14.07;100.00
5988;BME280;3021;51.000;6.980;2024-02-16T06:25:01;67868.06;;;14.07;100.00
5988;BME280;3021;51.000;6.980;2024-02-16T06:27:27;67875.00;;;14.13;100.00
5988;BME280;3021;51.000;6.980;2024-02-16T06:29:52;67876.19;;;14.14;100.00
5988;BME280;3021;51.000;6.980;2024-02-16T06:32:17;67881.25;;;14.16;100.00
5988;BME280;3021;51.000;6.980;2024-02-16T06:34:43;67867.63;;;14.09;100.00
5988;BME280;3021;51.000;6.980;2024-02-16T06:37:10;67887.03;;;14.21;100.00
5988;BME280;3021;51.000;6.980;2024-02-16T06:39:36;67904.44;;;14.37;100.00
5988;BME280;3021;51.000;6.980;2024-02-16T06:42:01;67914.88;;;14.46;100.00
5988;BME280;3021;51.000;6.980;2024-02-16T06:44:26;67912.09;;;14.46;100.00
5988;BME280;3021;51.000;6.980;2024-02-16T06:46:52;67919.50;;;14.50;100.00
5988;BME280;3021;51.000;6.980;2024-02-16T06:49:17;67917.19;;;14.48;100.00
5988;BME280;3021;51.000;6.980;2024-02-16T06:51:42;67921.84;;;14.52;100.00
5988;BME280;3021;51.000;6.980;2024-02-16T06:54:10;67931.09;;;14.60;100.00
5988;BME280;3021;51.000;6.980;2024-02-16T06:56:35;67935.34;;;14.66;100.00
5988;BME280;3021;51.000;6.980;2024-02-16T06:59:01;67946.78;;;14.74;100.00
5988;BME280;3021;51.000;6.980;2024-02-16T07:01:26;67948.09;;;14.78;100.00
5988;BME280;3021;51.000;6.980;2024-02-16T07:03:52;67948.66;;;14.78;100.00
5988;BME280;3021;51.000;6.980;2024-02-16T07:06:18;67952.13;;;14.81;100.00
5988;BME280;3021;51.000;6.980;2024-02-16T07:08:43;67940.41;;;14.68;100.00
5988;BME280;3021;51.000;6.980;2024-02-16T07:11:12;67907.34;;;14.39;100.00
5988;BME280;3021;51.000;6.980;2024-02-16T07:13:39;67889.38;;;14.23;100.00
5988;BME280;3021;51.000;6.980;2024-02-16T07:16:05;67890.53;;;14.24;100.00
5988;BME280;3021;51.000;6.980;2024-02-16T07:18:32;67891.69;;;14.25;100.00
5988;BME280;3021;51.000;6.980;2024-02-16T07:20:58;67893.41;;;14.27;100.00
5988;BME280;3021;51.000;6.980;2024-02-16T07:23:25;67895.31;;;14.31;100.00
5988;BME280;3021;51.000;6.980;2024-02-16T07:25:50;67899.94;;;14.35;100.00
5988;BME280;3021;51.000;6.980;2024-02-16T07:28:15;67912.09;;;14.46;100.00
5988;BME280;3021;51.000;6.980;2024-02-16T07:30:41;67934.03;;;14.63;100.00
5988;BME280;3021;51.000;6.980;2024-02-16T07:33:07;67948.09;;;14.78;100.00
5988;BME280;3021;51.000;6.980;2024-02-16T07:35:33;67965.59;;;14.96;100.00
5988;BME280;3021;51.000;6.980;2024-02-16T07:38:01;67994.91;;;15.17;100.00
5988;BME280;3021;51.000;6.980;2024-02-16T07:40:27;68009.56;;;15.32;100.00
5988;BME280;3021;51.000;6.980;2024-02-16T07:42:52;68024.63;;;15.46;100.00
5988;BME280;3021;51.000;6.980;2024-02-16T07:45:17;68039.16;;;15.59;100.00
5988;BME280;3021;51.000;6.980;2024-02-16T07:47:43;68044.38;;;15.63;100.00
5988;BME280;3021;51.000;6.980;2024-02-16T07:50:09;68053.06;;;15.71;100.00
5988;BME280;3021;51.000;6.980;2024-02-16T07:52:34;68058.16;;;15.73;100.00
5988;BME280;3021;51.000;6.980;2024-02-16T07:55:00;68055.53;;;15.76;100.00
5988;BME280;3021;51.000;6.980;2024-02-16T07:57:26;68060.50;;;15.75;100.00
5988;BME280;3021;51.000;6.980;2024-02-16T07:59:52;68062.38;;;15.79;100.00
5988;BME280;3021;51.000;6.980;2024-02-16T08:02:17;68068.06;;;15.82;100.00
5988;BME280;3021;51.000;6.980;2024-02-16T08:04:47;68063.09;;;15.82;100.00
5988;BME280;3021;51.000;6.980;2024-02-16T08:07:12;68067.59;;;15.84;100.00
5988;BME280;3021;51.000;6.980;2024-02-16T08:09:38;68059.47;;;15.77;100.00
5988;BME280;3021;51.000;6.980;2024-02-16T08:12:04;68050.16;;;15.68;100.00
5988;BME280;3021;51.000;6.980;2024-02-16T08:14:34;68055.84;;;15.71;100.00
5988;BME280;3021;51.000;6.980;2024-02-16T08:17:00;68065.16;;;15.79;100.00
5988;BME280;3021;51.000;6.980;2024-02-16T08:19:32;68063.53;;;15.80;100.00
5988;BME280;3021;51.000;6.980;2024-02-16T08:21:58;68053.06;;;15.71;100.00
5988;BME280;3021;51.000;6.980;2024-02-16T08:24:24;68058.28;;;15.76;100.00
5988;BME280;3021;51.000;6.980;2024-02-16T08:26:50;68068.06;;;15.82;100.00
5988;BME280;3021;51.000;6.980;2024-02-16T08:29:16;68068.88;;;15.87;100.00
5988;BME280;3021;51.000;6.980;2024-02-16T08:31:41;68084.44;;;15.99;100.00
5988;BME280;3021;51.000;6.980;2024-02-16T08:34:06;68090.38;;;16.06;100.00
5988;BME280;3021;51.000;6.980;2024-02-16T08:36:32;68101.28;;;16.14;100.00
5988;BME280;3021;51.000;6.980;2024-02-16T08:38:59;68094.31;;;16.08;100.00
5988;BME280;3021;51.000;6.980;2024-02-16T08:41:24;68095.31;;;16.06;100.00
5988;BME280;3021;51.000;6.980;2024-02-16T08:43:50;68106.34;;;16.16;100.00
5988;BME280;3021;51.000;6.980;2024-02-16T08:46:15;68111.59;;;16.20;100.00
5988;BME280;3021;51.000;6.980;2024-02-16T08:48:41;68111.84;;;16.26;100.00
5988;BME280;3021;51.000;6.980;2024-02-16T08:51:06;68118.69;;;16.29;100.00
5988;BME280;3021;51.000;6.980;2024-02-16T08:53:31;68137.25;;;16.46;100.00
5988;BME280;3021;51.000;6.980;2024-02-16T08:55:57;68146.69;;;16.56;100.00
5988;BME280;3021;51.000;6.980;2024-02-16T08:58:22;68145.38;;;16.53;100.00
5988;BME280;3021;51.000;6.980;2024-02-16T09:00:47;68144.81;;;16.52;100.00
5988;BME280;3021;51.000;6.980;2024-02-16T09:03:15;68122.75;;;16.33;100.00
5988;BME280;3021;51.000;6.980;2024-02-16T09:05:41;68109.53;;;16.23;100.00
5988;BME280;3021;51.000;6.980;2024-02-16T09:08:08;68138.44;;;16.47;100.00
5988;BME280;3021;51.000;6.980;2024-02-16T09:10:34;68156.56;;;16.65;100.00
5988;BME280;3021;51.000;6.980;2024-02-16T09:13:00;68182.56;;;16.86;100.00
5988;BME280;3021;51.000;6.980;2024-02-16T09:15:25;68210.34;;;17.08;100.00
5988;BME280;3021;51.000;6.980;2024-02-16T09:17:51;68230.78;;;17.28;100.00
5988;BME280;3021;51.000;6.980;2024-02-16T09:20:16;68249.25;;;17.42;100.00
5988;BME280;3021;51.000;6.980;2024-02-16T09:22:47;68255.19;;;17.50;100.00
5988;BME280;3021;51.000;6.980;2024-02-16T09:25:14;68250.69;;;17.49;100.00
5988;BME280;3021;51.000;6.980;2024-02-16T09:27:42;68246.34;;;17.40;100.00
5988;BME280;3021;51.000;6.980;2024-02-16T09:30:11;68218.00;;;17.17;100.00
5988;BME280;3021;51.000;6.980;2024-02-16T09:32:39;68206.84;;;17.05;100.00
5988;BME280;3021;51.000;6.980;2024-02-16T09:35:05;68191.88;;;16.94;100.00
5988;BME280;3021;51.000;6.980;2024-02-16T09:37:31;68174.56;;;16.81;100.00
5988;BME280;3021;51.000;6.980;2024-02-16T09:39:56;68173.84;;;16.78;100.00
5988;BME280;3021;51.000;6.980;2024-02-16T09:42:23;68184.75;;;16.85;100.00
5988;BME280;3021;51.000;6.980;2024-02-16T09:44:49;68196.53;;;16.98;100.00
5988;BME280;3021;51.000;6.980;2024-02-16T09:47:15;68216.88;;;17.16;100.00
5988;BME280;3021;51.000;6.980;2024-02-16T09:49:44;68244.16;;;17.40;100.00
5988;BME280;3021;51.000;6.980;2024-02-16T09:52:10;68273.81;;;17.67;100.00
5988;BME280;3021;51.000;6.980;2024-02-16T09:54:38;68289.63;;;17.83;100.00
5988;BME280;3021;51.000;6.980;2024-02-16T09:57:04;68298.78;;;17.89;100.00
5988;BME280;3021;51.000;6.980;2024-02-16T09:59:30;68286.00;;;17.77;100.00
5988;BME280;3021;51.000;6.980;2024-02-16T10:02:03;68270.88;;;17.64;100.00
5988;BME280;3021;51.000;6.980;2024-02-16T10:04:29;68248.69;;;17.42;100.00
5988;BME280;3021;51.000;6.980;2024-02-16T10:06:55;68235.91;;;17.31;100.00
5988;BME280;3021;51.000;6.980;2024-02-16T10:09:28;68211.63;;;17.12;100.00
5988;BME280;3021;51.000;6.980;2024-02-16T10:11:59;68195.50;;;17.00;100.00
5988;BME280;3021;51.000;6.980;2024-02-16T10:14:25;68169.78;;;16.74;100.00
5988;BME280;3021;51.000;6.980;2024-02-16T10:17:05;68117.53;;;16.28;100.00
5988;BME280;3021;51.000;6.980;2024-02-16T10:19:32;68107.06;;;16.19;100.00
5988;BME280;3021;51.000;6.980;2024-02-16T10:22:07;68133.06;;;16.39;100.00
5988;BME280;3021;51.000;6.980;2024-02-16T10:24:33;68174.28;;;16.76;100.00
5988;BME280;3021;51.000;6.980;2024-02-16T10:26:58;68215.56;;;17.13;100.00
5988;BME280;3021;51.000;6.980;2024-02-16T10:29:27;68243.00;;;17.39;100.00
5988;BME280;3021;51.000;6.980;2024-02-16T10:31:52;68261.44;;;17.53;100.00
5988;BME280;3021;51.000;6.980;2024-02-16T10:34:19;68261.16;;;17.58;100.00
5988;BME280;3021;51.000;6.980;2024-02-16T10:36:47;68257.97;;;17.50;100.00
5988;BME280;3021;51.000;6.980;2024-02-16T10:39:14;68250.44;;;17.43;100.00
5988;BME280;3021;51.000;6.980;2024-02-16T10:41:41;68239.53;;;17.36;100.00
5988;BME280;3021;51.000;6.980;2024-02-16T10:44:06;68218.72;;;17.20;100.00
5988;BME280;3021;51.000;6.980;2024-02-16T10:46:33;68206.97;;;17.07;100.00
5988;BME280;3021;51.000;6.980;2024-02-16T10:48:58;68211.03;;;17.11;100.00
5988;BME280;3021;51.000;6.980;2024-02-16T10:51:29;68190.72;;;16.93;100.00
5988;BME280;3021;51.000;6.980;2024-02-16T10:53:57;68171.97;;;16.74;100.00
5988;BME280;3021;51.000;6.980;2024-02-16T10:56:37;68143.66;;;16.51;100.00
5988;BME280;3021;51.000;6.980;2024-02-16T10:59:12;68143.66;;;16.51;100.00
5988;BME280;3021;51.000;6.980;2024-02-16T11:01:42;68147.13;;;16.54;100.00
5988;BME280;3021;51.000;6.980;2024-02-16T11:04:10;68163.97;;;16.69;100.00
5988;BME280;3021;51.000;6.980;2024-02-16T11:09:11;68187.81;;;16.90;100.00
5988;BME280;3021;51.000;6.980;2024-02-16T11:11:36;68174.41;;;16.79;100.00
5988;BME280;3021;51.000;6.980;2024-02-16T11:14:02;68174.56;;;16.81;100.00
5988;BME280;3021;51.000;6.980;2024-02-16T11:16:28;68186.66;;;16.89;100.00
5988;BME280;3021;51.000;6.980;2024-02-16T11:18:56;68183.00;;;16.84;100.00
5988;BME280;3021;51.000;6.980;2024-02-16T11:21:21;68185.31;;;16.86;100.00
5988;BME280;3021;51.000;6.980;2024-02-16T11:23:47;68188.38;;;16.91;100.00
5988;BME280;3021;51.000;6.980;2024-02-16T11:26:13;68202.34;;;17.03;100.00
5988;BME280;3021;51.000;6.980;2024-02-16T11:28:41;68219.19;;;17.18;100.00
5988;BME280;3021;51.000;6.980;2024-02-16T11:31:07;68223.81;;;17.22;100.00
5988;BME280;3021;51.000;6.980;2024-02-16T11:33:33;68228.47;;;17.26;100.00
5988;BME280;3021;51.000;6.980;2024-02-16T11:36:03;68225.00;;;17.23;100.00
5988;BME280;3021;51.000;6.980;2024-02-16T11:38:35;68220.47;;;17.22;100.00
5988;BME280;3021;51.000;6.980;2024-02-16T11:41:05;68228.47;;;17.26;100.00
5988;BME280;3021;51.000;6.980;2024-02-16T11:43:31;68220.91;;;17.20;100.00
5988;BME280;3021;51.000;6.980;2024-02-16T11:46:10;68228.47;;;17.26;100.00
5988;BME280;3021;51.000;6.980;2024-02-16T11:48:36;68240.56;;;17.35;100.00
5988;BME280;3021;51.000;6.980;2024-02-16T11:51:03;68243.56;;;17.40;100.00
5988;BME280;3021;51.000;6.980;2024-02-16T11:53:32;68238.34;;;17.35;100.00
5988;BME280;3021;51.000;6.980;2024-02-16T11:55:58;68246.47;;;17.42;100.00
5988;BME280;3021;51.000;6.980;2024-02-16T11:58:24;68248.09;;;17.41;100.00
5988;BME280;3021;51.000;6.980;2024-02-16T12:00:50;68237.19;;;17.34;100.00
5988;BME280;3021;51.000;6.980;2024-02-16T12:03:23;68221.94;;;17.18;100.00
5988;BME280;3021;51.000;6.980;2024-02-16T12:05:52;68205.38;;;17.08;100.00
5988;BME280;3021;51.000;6.980;2024-02-16T12:08:18;68200.00;;;17.01;100.00
5988;BME280;3021;51.000;6.980;2024-02-16T12:10:44;68180.66;;;16.82;100.00
5988;BME280;3021;51.000;6.980;2024-02-16T12:13:10;68155.84;;;16.62;100.00
5988;BME280;3021;51.000;6.980;2024-02-16T12:15:38;68136.09;;;16.45;100.00
5988;BME280;3021;51.000;6.980;2024-02-16T12:18:03;68139.72;;;16.50;100.00
5988;BME280;3021;51.000;6.980;2024-02-16T12:20:30;68156.28;;;16.60;100.00
5988;BME280;3021;51.000;6.980;2024-02-16T12:22:56;68147.25;;;16.57;100.00
5988;BME280;3021;51.000;6.980;2024-02-16T12:25:21;68136.22;;;16.47;100.00
5988;BME280;3021;51.000;6.980;2024-02-16T12:27:47;68133.78;;;16.42;100.00
5988;BME280;3021;51.000;6.980;2024-02-16T12:30:12;68099.06;;;16.14;100.00
5988;BME280;3021;51.000;6.980;2024-02-16T12:32:38;68065.28;;;15.82;100.00
5988;BME280;3021;51.000;6.980;2024-02-16T12:35:04;68038.72;;;15.61;100.00
5988;BME280;3021;51.000;6.980;2024-02-16T12:37:30;68034.81;;;15.50;100.00
5988;BME280;3021;51.000;6.980;2024-02-16T12:39:55;68007.22;;;15.30;100.00
5988;BME280;3021;51.000;6.980;2024-02-16T12:42:21;68004.91;;;15.28;100.00
5988;BME280;3021;51.000;6.980;2024-02-16T12:44:46;67986.34;;;15.12;100.00
5988;BME280;3021;51.000;6.980;2024-02-16T12:47:11;67976.94;;;15.01;100.00
5988;BME280;3021;51.000;6.980;2024-02-16T12:49:37;67968.97;;;14.96;100.00
5988;BME280;3021;51.000;6.980;2024-02-16T12:52:03;67971.72;;;14.96;100.00
5988;BME280;3021;51.000;6.980;2024-02-16T12:54:28;67971.28;;;14.98;100.00
5988;BME280;3021;51.000;6.980;2024-02-16T12:56:53;67977.66;;;15.04;100.00
5988;BME280;3021;51.000;6.980;2024-02-16T12:59:19;67986.22;;;15.09;100.00
5988;BME280;3021;51.000;6.980;2024-02-16T13:01:44;67994.91;;;15.17;100.00
5988;BME280;3021;51.000;6.980;2024-02-16T13:04:11;67996.66;;;15.18;100.00
5988;BME280;3021;51.000;6.980;2024-02-16T13:06:36;67991.44;;;15.14;100.00